Time;durP1;ratioP1;P1;durP2;ratioP2;P2;SDS_P1;SDS_P2;PMS_P1;PMS_P2;Temp;Humidity;BMP_temperature;BMP_pressure;BME280_temperature;BME280_humidity;BME280_pressure;Samples;Min_cycle;Max_cycle;Signal;HPM_P1;HPM_P2
2022/01/25 00:08:19;;;;;;;57.07;42.03;;;;;;;0.70;100.00;103411.53;5112076;28;20459;-63
2022/01/25 00:34:53;;;;;;;60.33;45.50;;;;;;;0.86;100.00;103395.44;5110897;28;20039;-63
2022/01/25 00:37:20;;;;;;;62.63;43.43;;;;;;;0.87;100.00;103406.53;5111072;28;20051;-63
2022/01/25 00:39:45;;;;;;;59.37;43.50;;;;;;;0.88;100.00;103411.81;5111225;28;20024;-63
2022/01/25 00:42:11;;;;;;;58.70;43.33;;;;;;;0.89;100.00;103405.06;5111334;28;20023;-63
2022/01/25 00:44:39;;;;;;;57.83;42.87;;;;;;;0.89;100.00;103407.63;5111228;28;20042;-63
2022/01/25 00:47:06;;;;;;;57.23;43.17;;;;;;;0.90;100.00;103412.00;5106271;28;20050;-62
2022/01/25 00:49:39;;;;;;;57.93;42.97;;;;;;;0.90;100.00;103400.13;5091755;28;20126;-62
2022/01/25 00:54:57;;;;;;;58.50;42.33;;;;;;;0.90;100.00;103400.13;5091478;28;20519;-63
2022/01/25 00:57:25;;;;;;;56.60;42.47;;;;;;;0.91;100.00;103395.94;5091411;28;20050;-63
2022/01/25 00:59:50;;;;;;;57.37;42.73;;;;;;;0.91;100.00;103391.75;5091437;28;20038;-63
2022/01/25 01:02:16;;;;;;;61.03;42.93;;;;;;;0.91;100.00;103391.75;5092739;28;20028;-63
2022/01/25 01:04:42;;;;;;;58.90;42.80;;;;;;;0.91;100.00;103381.53;5091265;28;20062;-63
2022/01/25 01:07:11;;;;;;;60.57;44.83;;;;;;;0.91;100.00;103391.75;5091229;28;20043;-63
2022/01/25 01:09:39;;;;;;;60.00;41.50;;;;;;;0.92;100.00;103392.63;5073131;28;20026;-63
2022/01/25 01:12:12;;;;;;;56.50;42.47;;;;;;;0.92;100.00;103392.63;5091450;28;20108;-63
2022/01/25 01:30:44;;;;;;;58.83;41.87;;;;;;;0.98;100.00;103412.84;5007703;28;20128;-63
2022/01/25 01:39:15;;;;;;;58.77;41.90;;;;;;;1.01;100.00;103408.09;5007807;28;20037;-63
2022/01/25 01:43:56;;;;;;;60.07;43.50;;;;;;;1.01;100.00;103409.00;5007459;28;20482;-62
2022/01/25 01:46:33;;;;;;;59.70;42.57;;;;;;;1.01;100.00;103403.00;5007034;28;20522;-63
2022/01/25 01:49:01;;;;;;;60.87;42.47;;;;;;;1.03;100.00;103411.72;5006793;28;20069;-63
2022/01/25 01:51:33;;;;;;;58.33;42.87;;;;;;;1.03;100.00;103406.59;5007045;28;20041;-63
2022/01/25 01:54:04;;;;;;;61.08;43.25;;;;;;;1.03;100.00;103416.81;5006957;28;20070;-63
2022/01/25 01:56:30;;;;;;;58.00;43.10;;;;;;;1.01;100.00;103406.44;5007100;28;20026;-63
2022/01/25 01:58:58;;;;;;;55.43;41.07;;;;;;;1.03;100.00;103416.81;5005834;28;20238;-63
2022/01/25 02:01:26;;;;;;;56.57;41.23;;;;;;;1.03;100.00;103409.16;5006876;28;20080;-63
2022/01/25 02:03:52;;;;;;;57.83;42.20;;;;;;;1.04;100.00;103408.44;5015280;28;20022;-63
2022/01/25 02:06:18;;;;;;;57.10;42.90;;;;;;;1.03;100.00;103407.53;5109971;28;20059;-62
2022/01/25 02:08:44;;;;;;;57.60;40.37;;;;;;;1.03;100.00;103411.72;5109020;28;20047;-63
2022/01/25 02:11:09;;;;;;;57.40;40.83;;;;;;;1.03;100.00;103399.88;5109499;28;20053;-63
2022/01/25 02:13:37;;;;;;;60.23;42.87;;;;;;;1.03;100.00;103393.84;5109797;28;20370;-64
2022/01/25 02:16:06;;;;;;;55.83;41.13;;;;;;;1.03;100.00;103397.31;5109311;28;20023;-63
2022/01/25 02:24:00;;;;;;;58.63;42.07;;;;;;;1.05;100.00;103395.84;5109137;28;20177;-63
2022/01/25 02:26:25;;;;;;;55.77;39.80;;;;;;;1.05;100.00;103395.84;5109565;28;20506;-63
2022/01/25 02:28:50;;;;;;;54.40;40.30;;;;;;;1.05;100.00;103385.63;5103214;28;20024;-63
2022/01/25 02:31:17;;;;;;;58.90;41.13;;;;;;;1.06;100.00;103389.09;5109206;28;20479;-63
2022/01/25 02:33:43;;;;;;;58.03;42.00;;;;;;;1.05;100.00;103385.63;5107957;28;20047;-62
2022/01/25 02:36:15;;;;;;;58.03;41.53;;;;;;;1.05;100.00;103384.69;5105291;28;20027;-63
2022/01/25 02:38:42;;;;;;;61.40;42.00;;;;;;;1.06;100.00;103382.31;5109449;28;20111;-63
2022/01/25 02:41:07;;;;;;;58.83;42.03;;;;;;;1.07;100.00;103378.13;5091085;28;20130;-63
2022/01/25 02:43:35;;;;;;;56.17;41.00;;;;;;;1.07;100.00;103375.56;5109010;28;20106;-63
2022/01/25 02:48:52;;;;;;;55.93;41.67;;;;;;;1.10;100.00;103373.34;5106873;28;20122;-63
2022/01/25 02:51:19;;;;;;;53.17;38.57;;;;;;;1.09;100.00;103371.56;5109068;28;20024;-63
2022/01/25 02:53:44;;;;;;;60.10;41.43;;;;;;;1.10;100.00;103370.81;5090776;28;20299;-63
2022/01/25 02:56:09;;;;;;;54.97;41.63;;;;;;;1.11;100.00;103370.09;5108973;28;20490;-64
2022/01/25 02:58:35;;;;;;;59.17;40.67;;;;;;;1.12;100.00;103371.88;5109041;28;20027;-63
2022/01/25 03:01:00;;;;;;;57.03;40.53;;;;;;;1.12;100.00;103371.88;5108936;28;20019;-63
2022/01/25 03:03:25;;;;;;;56.77;40.77;;;;;;;1.14;100.00;103382.28;5108871;28;20460;-63
2022/01/25 03:05:51;;;;;;;58.50;41.70;;;;;;;1.13;100.00;103377.91;5106760;28;20023;-62
2022/01/25 03:08:16;;;;;;;57.07;41.43;;;;;;;1.13;100.00;103370.25;5087092;28;20302;-63
2022/01/25 03:10:45;;;;;;;59.10;41.47;;;;;;;1.13;100.00;103372.81;5110475;28;20523;-63
2022/01/25 03:13:16;;;;;;;57.47;42.33;;;;;;;1.13;100.00;103367.69;5112741;28;20023;-63
2022/01/25 03:18:36;;;;;;;59.23;41.30;;;;;;;1.15;100.00;103366.22;5112937;28;20239;-63
2022/01/25 03:21:15;;;;;;;67.10;44.07;;;;;;;1.14;100.00;103359.28;5112652;28;20467;-63
2022/01/25 03:23:41;;;;;;;66.38;44.35;;;;;;;1.13;100.00;103360.94;5112672;28;20502;-63
2022/01/25 03:26:06;;;;;;;68.60;44.67;;;;;;;1.13;100.00;103348.19;5099813;28;20023;-63
2022/01/25 03:28:32;;;;;;;67.40;46.40;;;;;;;1.13;100.00;103343.06;5106707;28;20031;-63
2022/01/25 03:30:57;;;;;;;71.13;46.53;;;;;;;1.13;100.00;103340.50;5112568;28;20015;-63
2022/01/25 03:33:23;;;;;;;70.63;47.23;;;;;;;1.14;100.00;103344.88;5112547;28;20033;-62
2022/01/25 03:35:48;;;;;;;73.07;48.93;;;;;;;1.15;100.00;103351.78;5112731;28;20051;-63
2022/01/25 03:38:13;;;;;;;74.13;48.47;;;;;;;1.17;100.00;103350.31;5112351;28;20027;-63
2022/01/25 03:40:39;;;;;;;71.20;45.50;;;;;;;1.18;100.00;103341.94;5112485;28;20027;-63
2022/01/25 03:43:06;;;;;;;71.20;48.40;;;;;;;1.21;100.00;103345.56;5111237;28;20043;-63
2022/01/25 03:45:34;;;;;;;71.03;47.00;;;;;;;1.20;100.00;103336.97;5097159;28;20070;-62
2022/01/25 03:50:41;;;;;;;69.03;46.07;;;;;;;1.21;100.00;103345.56;5105961;28;20039;-63
2022/01/25 03:53:08;;;;;;;67.57;45.23;;;;;;;1.23;100.00;103349.16;5112199;28;20032;-63
2022/01/25 03:55:35;;;;;;;66.27;44.40;;;;;;;1.22;100.00;103343.16;5092940;28;20024;-63
2022/01/25 03:58:00;;;;;;;70.80;47.50;;;;;;;1.23;100.00;103349.16;5092701;28;20028;-62
2022/01/25 04:00:26;;;;;;;73.40;48.77;;;;;;;1.22;100.00;103342.25;5092808;28;20119;-63
2022/01/25 04:02:57;;;;;;;73.07;48.03;;;;;;;1.23;100.00;103349.16;5092416;28;20487;-63
2022/01/25 04:05:36;;;;;;;72.18;47.42;;;;;;;1.23;100.00;103354.28;5080892;28;20069;-62
2022/01/25 04:08:03;;;;;;;71.93;46.97;;;;;;;1.23;100.00;103357.75;5111988;28;20058;-63
2022/01/25 04:10:28;;;;;;;75.57;49.33;;;;;;;1.23;100.00;103352.63;5111917;28;20068;-63
2022/01/25 04:12:54;;;;;;;75.37;48.63;;;;;;;1.24;100.00;103366.34;5111856;28;20023;-62
2022/01/25 04:15:19;;;;;;;75.47;48.33;;;;;;;1.25;100.00;103363.94;5112070;28;20019;-63
2022/01/25 04:17:50;;;;;;;78.73;50.13;;;;;;;1.26;100.00;103364.88;5111821;28;20035;-63
2022/01/25 04:20:21;;;;;;;74.32;49.45;;;;;;;1.26;100.00;103354.63;5092253;28;20271;-63
2022/01/25 04:25:30;;;;;;;74.07;48.67;;;;;;;1.26;100.00;103352.09;5098378;28;20059;-63
2022/01/25 04:27:56;;;;;;;73.80;47.80;;;;;;;1.27;100.00;103349.69;5092371;28;20035;-62
2022/01/25 04:30:22;;;;;;;73.90;48.23;;;;;;;1.28;100.00;103342.91;5091844;28;20035;-63
2022/01/25 04:32:53;;;;;;;76.63;49.47;;;;;;;1.28;100.00;103348.94;5093346;28;20024;-64
2022/01/25 04:35:28;;;;;;;77.40;48.17;;;;;;;1.27;100.00;103349.69;5095601;28;20057;-63
2022/01/25 04:49:20;;;;;;;77.47;48.13;;;;;;;1.29;100.00;103342.19;5104874;28;20499;-63
2022/01/25 04:54:35;;;;;;;73.27;47.07;;;;;;;1.28;100.00;103341.28;5111191;28;20092;-63
2022/01/25 04:57:17;;;;;;;73.97;46.73;;;;;;;1.29;100.00;103347.31;5110900;28;20030;-63
2022/01/25 05:05:02;;;;;;;76.67;48.00;;;;;;;1.29;100.00;103334.53;5110822;28;20487;-63
2022/01/25 05:10:04;;;;;;;76.67;49.37;;;;;;;1.27;100.00;103333.44;5110862;28;20031;-63
2022/01/25 05:12:40;;;;;;;73.60;47.60;;;;;;;1.27;100.00;103341.13;5110432;28;20036;-63
2022/01/25 05:15:20;;;;;;;74.90;46.40;;;;;;;1.27;100.00;103336.91;5110614;28;20019;-62
2022/01/25 05:17:59;;;;;;;54.88;36.08;;;;;;;1.27;100.00;103334.38;5110852;28;20026;-63
2022/01/25 05:23:08;;;;;;;73.90;47.30;;;;;;;1.29;100.00;103325.22;5103682;28;20110;-63
2022/01/25 05:25:33;;;;;;;70.10;45.77;;;;;;;1.31;100.00;103333.06;5110245;28;20501;-63
2022/01/25 05:27:58;;;;;;;75.93;46.90;;;;;;;1.32;100.00;103345.06;5110705;28;20027;-63
2022/01/25 05:30:24;;;;;;;78.27;47.17;;;;;;;1.31;100.00;103335.63;5110292;28;20395;-63
2022/01/25 05:32:49;;;;;;;74.83;49.80;;;;;;;1.31;100.00;103339.06;5109900;28;20027;-63
2022/01/25 05:35:14;;;;;;;73.33;48.27;;;;;;;1.31;100.00;103327.94;5110210;28;20042;-63
2022/01/25 05:37:42;;;;;;;77.63;48.30;;;;;;;1.31;100.00;103330.50;5110166;28;20023;-63
2022/01/25 05:40:16;;;;;;;73.40;45.87;;;;;;;1.31;100.00;103322.84;5110016;28;20540;-63
2022/01/25 05:43:57;;;;;;;77.20;48.63;;;;;;;1.33;100.00;103325.56;5098140;28;20387;-63
2022/01/25 05:48:04;;;;;;;75.07;47.30;;;;;;;1.33;100.00;103336.69;5110159;28;20587;-63
2022/01/25 05:50:29;;;;;;;73.60;46.83;;;;;;;1.34;100.00;103333.38;5110353;28;20024;-63
2022/01/25 05:52:55;;;;;;;80.83;50.00;;;;;;;1.34;100.00;103328.28;5110060;28;20426;-63
2022/01/25 05:55:20;;;;;;;72.00;45.13;;;;;;;1.34;100.00;103327.34;5109708;28;20133;-63
2022/01/25 05:57:46;;;;;;;78.10;49.47;;;;;;;1.34;100.00;103330.84;5109866;28;20076;-63
2022/01/25 06:00:11;;;;;;;74.97;47.83;;;;;;;1.34;100.00;103325.72;5108508;28;20073;-62
2022/01/25 06:02:37;;;;;;;77.10;49.70;;;;;;;1.34;100.00;103333.38;5107356;28;20519;-63
2022/01/25 06:05:05;;;;;;;75.13;48.93;;;;;;;1.33;100.00;103323.00;5109917;28;20020;-63
2022/01/25 06:07:30;;;;;;;72.00;46.10;;;;;;;1.34;100.00;103325.72;5109419;28;20042;-62
2022/01/25 06:09:55;;;;;;;76.70;47.77;;;;;;;1.35;100.00;103329.19;5109472;28;20251;-63
2022/01/25 06:12:21;;;;;;;78.63;49.53;;;;;;;1.35;100.00;103324.97;5107651;28;20094;-62
2022/01/25 06:14:46;;;;;;;79.30;48.90;;;;;;;1.36;100.00;103326.81;5109351;28;20016;-63
2022/01/25 06:17:11;;;;;;;76.53;47.17;;;;;;;1.35;100.00;103322.41;5109246;28;20098;-63
2022/01/25 06:19:37;;;;;;;76.57;49.47;;;;;;;1.37;100.00;103331.16;5109466;28;20028;-62
2022/01/25 06:22:02;;;;;;;72.90;48.73;;;;;;;1.37;100.00;103328.59;5109493;28;20549;-62
2022/01/25 06:24:27;;;;;;;79.33;49.57;;;;;;;1.37;100.00;103328.59;5108568;28;20108;-63
2022/01/25 06:26:53;;;;;;;79.87;48.63;;;;;;;1.37;100.00;103323.50;5107406;28;20764;-64
2022/01/25 06:29:19;;;;;;;79.57;51.03;;;;;;;1.38;100.00;103327.88;5091187;28;20015;-63
2022/01/25 06:31:48;;;;;;;80.10;52.27;;;;;;;1.38;100.00;103319.31;5109727;28;20027;-64
2022/01/25 06:34:15;;;;;;;84.97;51.57;;;;;;;1.37;100.00;103328.59;5109205;28;20027;-64
2022/01/25 06:36:41;;;;;;;82.83;50.50;;;;;;;1.37;100.00;103320.94;5109323;28;20555;-64
2022/01/25 06:39:06;;;;;;;79.87;52.00;;;;;;;1.38;100.00;103325.31;5108996;28;20031;-63
2022/01/25 06:41:34;;;;;;;86.33;54.00;;;;;;;1.38;100.00;103329.53;5109085;28;20076;-63
2022/01/25 06:43:59;;;;;;;81.33;49.47;;;;;;;1.38;100.00;103322.78;5109434;28;20538;-63
2022/01/25 06:46:24;;;;;;;78.57;50.07;;;;;;;1.38;100.00;103325.31;5108922;28;20023;-63
2022/01/25 06:48:50;;;;;;;82.13;51.90;;;;;;;1.39;100.00;103336.44;5112722;28;20467;-63
2022/01/25 06:51:15;;;;;;;81.63;50.03;;;;;;;1.39;100.00;103334.78;5113341;28;20019;-63
2022/01/25 06:53:40;;;;;;;79.77;50.63;;;;;;;1.40;100.00;103338.28;5112931;28;20081;-62
2022/01/25 06:56:06;;;;;;;79.77;49.63;;;;;;;1.40;100.00;103333.16;5113153;28;20027;-62
2022/01/25 06:58:32;;;;;;;84.10;50.77;;;;;;;1.40;100.00;103326.38;5113253;28;20094;-63
2022/01/25 07:00:58;;;;;;;80.87;50.23;;;;;;;1.41;100.00;103332.41;5112993;28;20031;-63
2022/01/25 07:03:23;;;;;;;85.73;51.67;;;;;;;1.41;100.00;103337.50;5113107;28;20076;-62
2022/01/25 07:05:48;;;;;;;85.90;53.50;;;;;;;1.41;100.00;103342.63;5113024;28;20467;-62
2022/01/25 07:08:14;;;;;;;87.57;54.27;;;;;;;1.40;100.00;103346.81;5111534;27;20027;-63
2022/01/25 07:10:39;;;;;;;83.33;50.33;;;;;;;1.41;100.00;103350.28;5098570;28;20024;-63
2022/01/25 07:13:05;;;;;;;83.63;53.03;;;;;;;1.41;100.00;103351.22;5093288;28;20058;-62
2022/01/25 07:15:30;;;;;;;85.23;53.93;;;;;;;1.43;100.00;103346.25;5093434;28;20028;-63
2022/01/25 07:17:56;;;;;;;84.77;54.33;;;;;;;1.43;100.00;103353.94;5093089;28;20024;-63
2022/01/25 07:20:21;;;;;;;88.73;55.00;;;;;;;1.42;100.00;103347.03;5093147;28;20039;-63
2022/01/25 07:22:46;;;;;;;77.97;49.27;;;;;;;1.43;100.00;103347.19;5093053;28;20024;-62
2022/01/25 07:25:12;;;;;;;86.03;51.80;;;;;;;1.44;100.00;103348.06;5091544;28;20454;-63
2022/01/25 07:27:38;;;;;;;84.60;51.87;;;;;;;1.44;100.00;103341.31;5091600;28;20088;-62
2022/01/25 07:30:04;;;;;;;86.03;53.70;;;;;;;1.43;100.00;103342.06;5072143;28;20166;-62
2022/01/25 07:32:30;;;;;;;84.33;52.70;;;;;;;1.43;100.00;103353.94;5091064;28;20066;-63
2022/01/25 07:34:55;;;;;;;83.60;53.00;;;;;;;1.45;100.00;103347.34;5071856;28;20051;-62
2022/01/25 07:37:21;;;;;;;87.60;56.23;;;;;;;1.42;100.00;103353.00;5071258;28;20023;-62
2022/01/25 07:39:48;;;;;;;86.67;54.47;;;;;;;1.41;100.00;103346.09;5095172;28;20443;-63
2022/01/25 07:42:15;;;;;;;87.70;54.97;;;;;;;1.42;100.00;103347.91;5106605;27;20035;-63
2022/01/25 07:44:40;;;;;;;85.70;52.70;;;;;;;1.43;100.00;103343.72;5094804;27;20031;-63
2022/01/25 07:47:06;;;;;;;93.07;57.17;;;;;;;1.43;100.00;103354.84;5099791;27;20036;-63
2022/01/25 07:49:32;;;;;;;91.73;56.87;;;;;;;1.45;100.00;103357.56;5106766;27;20426;-62
2022/01/25 07:51:58;;;;;;;93.50;59.27;;;;;;;1.46;100.00;103354.25;5109968;28;20039;-63
2022/01/25 07:54:24;;;;;;;84.70;57.07;;;;;;;1.46;100.00;103359.38;5099370;27;20094;-63
2022/01/25 07:56:50;;;;;;;86.37;55.33;;;;;;;1.48;100.00;103351.88;5114560;27;20103;-62
2022/01/25 07:59:16;;;;;;;82.13;53.57;;;;;;;1.50;100.00;103355.50;5096497;27;20111;-62
2022/01/25 08:01:42;;;;;;;85.00;54.67;;;;;;;1.51;100.00;103357.34;5101915;27;20077;-63
2022/01/25 08:04:10;;;;;;;88.00;57.57;;;;;;;1.53;100.00;103360.97;5098812;28;20076;-63
2022/01/25 08:06:37;;;;;;;86.93;57.40;;;;;;;1.53;100.00;103351.63;5102366;28;20039;-63
2022/01/25 08:09:05;;;;;;;87.00;55.33;;;;;;;1.54;100.00;103352.56;5096256;28;20468;-63
2022/01/25 08:11:31;;;;;;;85.83;55.57;;;;;;;1.56;100.00;103353.63;5101050;28;20036;-63
2022/01/25 08:14:02;;;;;;;84.70;54.73;;;;;;;1.57;100.00;103347.78;5102156;28;20039;-63
2022/01/25 08:16:27;;;;;;;88.77;58.47;;;;;;;1.58;100.00;103349.59;5099810;28;20081;-63
2022/01/25 08:18:53;;;;;;;91.90;58.03;;;;;;;1.58;100.00;103356.34;5088136;28;20032;-63
2022/01/25 08:21:19;;;;;;;91.70;58.53;;;;;;;1.60;100.00;103357.44;5098650;28;20125;-63
2022/01/25 08:23:44;;;;;;;89.90;58.43;;;;;;;1.61;100.00;103354.13;5104971;28;20060;-63
2022/01/25 08:26:10;;;;;;;91.87;58.70;;;;;;;1.62;100.00;103367.06;5100474;27;20501;-63
2022/01/25 08:28:35;;;;;;;101.07;61.50;;;;;;;1.63;100.00;103365.44;5102656;28;20693;-62
2022/01/25 08:31:01;;;;;;;104.03;65.13;;;;;;;1.62;100.00;103361.97;5098271;27;20032;-62
2022/01/25 08:33:26;;;;;;;102.67;65.03;;;;;;;1.62;100.00;103361.06;5104928;27;20019;-62
2022/01/25 08:35:51;;;;;;;99.63;63.47;;;;;;;1.61;100.00;103365.28;5096600;28;20099;-62
2022/01/25 08:38:17;;;;;;;100.07;65.03;;;;;;;1.63;100.00;103366.34;5104516;28;20024;-62
2022/01/25 08:40:42;;;;;;;107.57;68.67;;;;;;;1.64;100.00;103367.25;5100719;27;20106;-63
2022/01/25 08:43:07;;;;;;;105.50;66.33;;;;;;;1.66;100.00;103365.75;5098314;28;20488;-63
2022/01/25 08:45:33;;;;;;;106.17;66.90;;;;;;;1.68;100.00;103372.88;5098991;28;20536;-63
2022/01/25 08:47:58;;;;;;;99.97;64.77;;;;;;;1.71;100.00;103371.41;5083688;28;20055;-63
2022/01/25 08:50:24;;;;;;;101.10;63.80;;;;;;;1.72;100.00;103366.44;5098218;27;20082;-63
2022/01/25 08:52:50;;;;;;;103.90;65.70;;;;;;;1.72;100.00;103368.09;5104619;27;20031;-63
2022/01/25 08:55:15;;;;;;;102.83;64.90;;;;;;;1.71;100.00;103367.16;5103681;28;20049;-62
2022/01/25 08:57:41;;;;;;;100.73;66.67;;;;;;;1.73;100.00;103364.78;5100186;27;20270;-63
2022/01/25 09:00:10;;;;;;;99.10;64.50;;;;;;;1.75;100.00;103373.53;5101639;28;20036;-63
2022/01/25 09:02:36;;;;;;;104.23;68.37;;;;;;;1.73;100.00;103377.56;5099887;27;20059;-63
2022/01/25 09:05:03;;;;;;;106.00;68.30;;;;;;;1.74;100.00;103372.63;5098108;28;20380;-62
2022/01/25 09:07:28;;;;;;;102.03;66.93;;;;;;;1.77;100.00;103379.72;5097075;27;20445;-62
2022/01/25 09:09:53;;;;;;;108.00;66.53;;;;;;;1.79;100.00;103380.78;5111796;27;20070;-63
2022/01/25 09:12:19;;;;;;;107.33;70.07;;;;;;;1.81;100.00;103379.31;5099669;27;20104;-63
2022/01/25 09:14:44;;;;;;;104.70;66.93;;;;;;;1.82;100.00;103385.34;5086936;28;20047;-63
2022/01/25 09:17:13;;;;;;;107.37;68.70;;;;;;;1.82;100.00;103380.25;5099675;28;20023;-63
2022/01/25 09:19:38;;;;;;;91.33;61.40;;;;;;;1.82;100.00;103386.25;5107173;27;20107;-63
2022/01/25 09:22:05;;;;;;;90.37;62.43;;;;;;;1.82;100.00;103380.25;5099785;27;20118;-62
2022/01/25 09:24:31;;;;;;;91.53;61.67;;;;;;;1.84;100.00;103383.84;5112402;27;20212;-63
2022/01/25 09:26:56;;;;;;;95.73;61.83;;;;;;;1.85;100.00;103378.94;5094840;28;20419;-62
2022/01/25 09:29:22;;;;;;;88.63;62.37;;;;;;;1.85;100.00;103381.47;5103982;27;20487;-63
2022/01/25 09:31:47;;;;;;;90.40;61.67;;;;;;;1.86;100.00;103384.91;5098874;27;20051;-62
2022/01/25 09:34:15;;;;;;;94.33;63.23;;;;;;;1.87;100.00;103384.19;5104604;27;20031;-63
2022/01/25 09:36:40;;;;;;;88.63;62.13;;;;;;;1.89;100.00;103386.16;5101596;28;20459;-63
2022/01/25 09:39:06;;;;;;;92.60;62.33;;;;;;;1.92;100.00;103389.03;5097680;28;20031;-63
2022/01/25 09:41:31;;;;;;;85.23;58.63;;;;;;;1.90;100.00;103393.13;5101444;28;20061;-63
2022/01/25 09:43:56;;;;;;;93.53;62.67;;;;;;;1.90;100.00;103384.53;5099566;28;20107;-62
2022/01/25 09:46:22;;;;;;;94.60;65.37;;;;;;;1.92;100.00;103386.50;5110417;27;20458;-62
2022/01/25 09:48:48;;;;;;;97.20;65.07;;;;;;;1.94;100.00;103398.56;5097471;27;20066;-62
2022/01/25 09:51:17;;;;;;;95.30;65.57;;;;;;;1.94;100.00;103391.81;5090588;28;20031;-63
2022/01/25 09:53:42;;;;;;;95.10;65.07;;;;;;;1.97;100.00;103404.00;5093350;27;20609;-63
2022/01/25 09:56:08;;;;;;;91.73;64.50;;;;;;;1.97;100.00;103401.44;5106468;27;20030;-62
2022/01/25 09:58:34;;;;;;;90.40;61.73;;;;;;;1.97;100.00;103406.56;5096549;28;20032;-63
2022/01/25 10:01:01;;;;;;;93.80;64.40;;;;;;;1.98;100.00;103408.38;5107608;27;20035;-62
2022/01/25 10:03:34;;;;;;;97.17;66.37;;;;;;;1.99;100.00;103407.63;5098133;27;20032;-63
2022/01/25 10:06:01;;;;;;;102.43;64.17;;;;;;;1.99;100.00;103399.97;5098388;28;20078;-63
2022/01/25 10:08:30;;;;;;;88.47;62.67;;;;;;;2.00;100.00;103401.75;5095394;28;20479;-63
2022/01/25 10:11:01;;;;;;;95.47;63.23;;;;;;;2.06;100.00;103406.63;5097273;28;20032;-62
2022/01/25 10:13:36;;;;;;;93.10;62.63;;;;;;;2.06;100.00;103402.44;5087883;27;20035;-63
2022/01/25 10:16:19;;;;;;;94.07;65.67;;;;;;;2.07;100.00;103398.25;5097577;28;20525;-63
2022/01/25 10:18:46;;;;;;;94.63;66.00;;;;;;;2.09;100.00;103405.31;5104368;27;20353;-63
2022/01/25 10:21:21;;;;;;;92.60;63.67;;;;;;;2.11;100.00;103398.72;5099879;27;20391;-62
2022/01/25 10:24:07;;;;;;;90.63;62.97;;;;;;;2.09;100.00;103402.75;5100727;27;20502;-62
2022/01/25 10:26:36;;;;;;;94.87;64.73;;;;;;;2.11;100.00;103406.41;5097360;28;20059;-63
2022/01/25 10:29:04;;;;;;;93.47;64.87;;;;;;;2.14;100.00;103404.16;5103834;27;20036;-63
2022/01/25 10:31:34;;;;;;;94.60;65.00;;;;;;;2.16;100.00;103399.22;5100434;27;20023;-63
2022/01/25 10:34:00;;;;;;;90.80;63.08;;;;;;;2.18;100.00;103404.53;5100695;27;20055;-62
2022/01/25 10:36:25;;;;;;;92.47;64.23;;;;;;;2.20;100.00;103410.69;5100270;28;20463;-63
2022/01/25 10:38:54;;;;;;;97.30;66.63;;;;;;;2.22;100.00;103393.84;5094360;28;20595;-63
2022/01/25 10:41:25;;;;;;;92.07;63.87;;;;;;;2.22;100.00;103401.53;5099882;28;20020;-63
2022/01/25 10:43:52;;;;;;;94.82;65.28;;;;;;;2.21;100.00;103403.19;5093065;28;20047;-63
2022/01/25 10:46:19;;;;;;;94.20;63.87;;;;;;;2.19;100.00;103398.66;5107953;28;20035;-63
2022/01/25 10:49:12;;;;;;;91.03;66.30;;;;;;;2.21;100.00;103390.41;5073145;28;20035;-63
2022/01/25 10:51:41;;;;;;;89.60;62.30;;;;;;;2.23;100.00;103391.44;4989559;28;20045;-63
2022/01/25 10:54:28;;;;;;;88.23;62.23;;;;;;;2.24;100.00;103393.28;4997067;28;20081;-62
2022/01/25 10:56:59;;;;;;;93.90;65.30;;;;;;;2.27;100.00;103397.81;4993148;28;20109;-62
2022/01/25 10:59:32;;;;;;;96.95;66.07;;;;;;;2.29;100.00;103393.75;4981238;28;20481;-63
2022/01/25 11:02:04;;;;;;;95.40;64.17;;;;;;;2.30;100.00;103395.59;4994329;28;20037;-63
2022/01/25 11:04:34;;;;;;;92.20;64.37;;;;;;;2.31;100.00;103392.28;5006507;28;20097;-64
2022/01/25 11:07:11;;;;;;;92.75;64.65;;;;;;;2.30;100.00;103387.91;4992221;28;20041;-63
2022/01/25 11:09:42;;;;;;;88.57;63.10;;;;;;;2.31;100.00;103399.97;4989225;28;20042;-64
2022/01/25 11:12:13;;;;;;;;;;;;;;;2.31;100.00;103392.28;4993184;28;20566;-63
2022/01/25 11:14:56;;;;;;;92.43;61.85;;;;;;;2.32;100.00;103396.66;4998134;28;19918;-64
2022/01/25 11:17:27;;;;;;;90.43;58.83;;;;;;;2.33;100.00;103398.47;4997134;28;20036;-63
2022/01/25 11:19:53;;;;;;;90.72;61.83;;;;;;;2.34;100.00;103404.50;4994587;28;20031;-63
2022/01/25 11:22:20;;;;;;;86.77;60.60;;;;;;;2.37;100.00;103404.84;5006077;28;20041;-63
2022/01/25 11:24:54;;;;;;;90.03;61.80;;;;;;;2.36;100.00;103398.81;4990937;28;20084;-63
2022/01/25 11:27:22;;;;;;;93.03;61.03;;;;;;;2.38;100.00;103397.31;5001050;28;20042;-63
2022/01/25 11:29:53;;;;;;;96.50;61.83;;;;;;;2.40;100.00;103400.94;5119672;28;20043;-64
2022/01/25 11:32:24;;;;;;;90.90;62.75;;;;;;;2.34;100.00;103395.16;5116034;27;20034;-63
2022/01/25 11:34:51;;;;;;;92.40;63.10;;;;;;;2.33;100.00;103398.47;5118364;27;20032;-64
2022/01/25 11:37:17;;;;;;;93.90;62.13;;;;;;;2.35;100.00;103397.00;5129722;27;20031;-64
2022/01/25 11:39:48;;;;;;;84.30;58.83;;;;;;;2.38;100.00;103398.97;5133386;27;20378;-63
2022/01/25 11:42:23;;;;;;;94.57;63.43;;;;;;;2.39;100.00;103399.13;5133169;27;20439;-64
2022/01/25 11:44:50;;;;;;;97.97;63.93;;;;;;;2.42;100.00;103402.75;5132709;27;20024;-63
2022/01/25 11:47:18;;;;;;;92.13;62.97;;;;;;;2.42;100.00;103397.63;5133115;27;20023;-63
2022/01/25 11:49:54;;;;;;;94.00;65.27;;;;;;;2.45;100.00;103400.50;5132234;27;20035;-64
2022/01/25 11:52:21;;;;;;;88.53;62.37;;;;;;;2.46;100.00;103399.78;5133215;27;20034;-63
2022/01/25 11:54:50;;;;;;;95.03;64.10;;;;;;;2.48;100.00;103398.31;5132894;27;20118;-63
2022/01/25 11:57:25;;;;;;;93.23;64.53;;;;;;;2.50;100.00;103394.25;5132928;27;20394;-63
2022/01/25 11:59:57;;;;;;;88.57;59.53;;;;;;;2.50;100.00;103400.25;5128287;27;20043;-64
2022/01/25 12:02:41;;;;;;;;;;;;;;;2.51;100.00;103398.63;5133588;27;20059;-63
2022/01/25 12:05:09;;;;;;;89.47;59.53;;;;;;;2.50;100.00;103396.81;5118566;27;19908;-64
2022/01/25 12:07:39;;;;;;;90.33;61.13;;;;;;;2.47;100.00;103387.16;5112545;28;20037;-64
2022/01/25 12:10:29;;;;;;;86.05;59.88;;;;;;;2.47;100.00;103388.78;5112398;28;20044;-64
2022/01/25 12:13:27;;;;;;;90.87;61.10;;;;;;;2.46;100.00;103382.78;5115475;27;20031;-63
2022/01/25 12:16:26;;;;;;;91.07;61.87;;;;;;;2.47;100.00;103379.47;5131637;27;20398;-63
2022/01/25 12:19:05;;;;;;;89.70;61.80;;;;;;;2.46;100.00;103376.75;5113961;27;20015;-63
2022/01/25 12:21:46;;;;;;;88.03;60.37;;;;;;;2.45;100.00;103382.59;5132788;27;20030;-64
2022/01/25 12:24:50;;;;;;;87.65;59.88;;;;;;;2.47;100.00;103376.00;5132470;27;20100;-63
2022/01/25 12:27:26;;;;;;;84.60;58.97;;;;;;;2.47;100.00;103381.09;5116416;27;20043;-63
2022/01/25 12:29:58;;;;;;;89.88;58.58;;;;;;;2.47;100.00;103382.03;5132609;27;20028;-64
2022/01/25 12:32:30;;;;;;;88.60;58.93;;;;;;;2.43;100.00;103371.31;5126025;27;20054;-64
2022/01/25 12:34:58;;;;;;;86.07;58.57;;;;;;;2.43;100.00;103371.31;5132131;27;20119;-63
2022/01/25 12:37:42;;;;;;;87.43;60.87;;;;;;;2.45;100.00;103367.22;5132387;27;20050;-63
2022/01/25 12:40:26;;;;;;;84.13;59.17;;;;;;;2.48;100.00;103362.47;5113550;27;20034;-64
2022/01/25 12:43:10;;;;;;;84.93;58.13;;;;;;;2.48;100.00;103365.03;5131404;27;20445;-64
2022/01/25 12:45:43;;;;;;;84.17;56.57;;;;;;;2.50;100.00;103360.97;5112932;27;20028;-63
2022/01/25 12:48:11;;;;;;;82.37;58.63;;;;;;;2.52;100.00;103362.03;5109350;27;20532;-63
2022/01/25 12:50:39;;;;;;;85.97;58.50;;;;;;;2.55;100.00;103366.56;5111874;27;20031;-63
2022/01/25 12:53:07;;;;;;;84.83;60.33;;;;;;;2.56;100.00;103361.59;5109270;27;20035;-63
2022/01/25 12:55:42;;;;;;;86.37;60.73;;;;;;;2.59;100.00;103356.81;5111430;27;20089;-63
2022/01/25 12:58:09;;;;;;;82.93;57.17;;;;;;;2.61;100.00;103355.31;5106158;27;20059;-63